LTFHLTAZ

Guest
Details From LTFH - CARSAMBA
To LTAZ - KAPADOKYA
Flight Number -
Tags generated
Created
Modified
Stats Distance 176 nm / 326 km
Max Altitude 16,100 ft / 4,907 m
Waypoints 3
Social Downloads 1
Likes 0
Share VATSIM

Download

Looking for another format? Having issues loading an existing format? Contact us
Advertisement - Login to hide

Notes

Basic altitude profile: - Ascent Rate: 2500ft/min - Ascent Speed: 250kts - Cruise Altitude: 35000ft - Cruise Speed: 420kts - Descent Rate: 1500ft/min - Descent Speed: 250kts Options: - Use NATs: yes - Use PACOTS: yes - Use low airways: yes - Use high airways: yes

Route

LTFH ELDEN LTAZ

ID Type Via Altitude Latitude Longitude Leg Dist Tot Dist Heading (true) Name
O LTFH APT - 0 ft / 0 m 41.25448˚ 36.56710˚ - 0 nm - CARSAMBA
ELDEN FIX - 16,100 ft / 4,907 m 39.90972˚ 35.42917˚ 96 nm 96 nm 213° / 212° -
O LTAZ APT - 0 ft / 0 m 38.77186˚ 34.53455˚ 79 nm 175 nm 212° / 211° KAPADOKYA

Altitude Profile

Advertisement - Login to hide

Weather


0- 5 10 15 20 25 30 35+ Temperature / ° C

Clouds and Precipitation
Forecast for 2017-12-16 18:00 UTC. Updated 19 minutes ago

Ground ~20,000 ft ~40,000 ft Winds

LTFH

Details ICAO LTFH (SZF)
Name CARSAMBA
Region Turkey
Timezone Europe/Istanbul (UTC+3.0)
Stats Elevation 18 ft / 5 m (AMSL)
Location 41.254480° 36.567103°
Runways 1
Magnetic Variation 6.200° E

METAR

LTFH 161250Z 28007KT 9999 FEW036 BKN200 18/05 Q1015 NOSIG

Decode

TAF

Not found

Departure Runways

ID Width Length Bearing (true) Bearing (mag) Surface Threshold Offset Overrun Length
13 148 ft / 45 m 9,798 ft / 2,986 m 133.61° 127.41° Concrete 0 ft / 0 m 195 ft / 59 m
31 148 ft / 45 m 9,798 ft / 2,986 m 313.63° 307.43° Concrete 0 ft / 0 m 195 ft / 59 m

LTAZ

Details ICAO LTAZ (NAV)
Name KAPADOKYA
Region Turkey
Timezone Europe/Istanbul (UTC+3.0)
Stats Elevation 3,100 ft / 945 m (AMSL)
Location 38.771865° 34.534548°
Runways 1
Magnetic Variation 5.599° E

METAR

LTAZ 161320Z 25008KT 9999 FEW040 BKN110 13/04 Q1019

Decode

TAF

Not found

Destination Runways

ID Width Length Bearing (true) Bearing (mag) Surface Threshold Offset Overrun Length
11 148 ft / 45 m 9,789 ft / 2,984 m 117.31° 111.71° Concrete 0 ft / 0 m 197 ft / 60 m
29 148 ft / 45 m 9,789 ft / 2,984 m 297.33° 291.73° Concrete 0 ft / 0 m 197 ft / 60 m

Approach Navaids

Runway Type Ident Frequency Range Bearing (true) Bearing (mag) Slope Elevation
11 Localiser ITZK 110.70 MHz 18 nm / 33 km 117.47° 111.87° - 3,100 ft / 945 m (AMSL)
11 Glidescope ITZK 110.70 MHz 10 nm / 19 km 117.32° 111.72° 3.00° 3,100 ft / 945 m (AMSL)